Time;durP1;ratioP1;P1;durP2;ratioP2;P2;SDS_P1;SDS_P2;PMS_P1;PMS_P2;Temp;Humidity;BMP_temperature;BMP_pressure;BME280_temperature;BME280_humidity;BME280_pressure;Samples;Min_cycle;Max_cycle;Signal;HPM_P1;HPM_P2
2021/01/26 00:01:15;;;;;;;16.02;9.45;;;77.40;2227.20;;;;;;5115061;28;20233;-68
2021/01/26 00:03:43;;;;;;;18.65;11.25;;;77.40;2227.20;;;;;;5109532;28;20040;-68
2021/01/26 00:06:09;;;;;;;14.85;9.10;;;77.40;2227.20;;;;;;5104898;28;20035;-69
2021/01/26 00:08:35;;;;;;;15.27;9.90;;;77.40;2227.20;;;;;;5092646;28;20027;-68
2021/01/26 00:11:03;;;;;;;16.48;9.18;;;77.40;2227.20;;;;;;5110411;28;20545;-68
2021/01/26 00:13:28;;;;;;;16.05;10.20;;;77.40;2227.20;;;;;;5093838;28;20049;-67
2021/01/26 00:15:54;;;;;;;18.10;10.40;;;77.40;2227.20;;;;;;5103018;28;20099;-67
2021/01/26 00:18:20;;;;;;;20.38;11.10;;;77.40;2227.20;;;;;;5093254;28;20046;-66
2021/01/26 00:20:46;;;;;;;16.17;9.88;;;77.40;2227.20;;;;;;5095523;28;20028;-70
2021/01/26 00:23:11;;;;;;;16.58;9.98;;;77.40;2227.20;;;;;;5094596;28;20107;-67
2021/01/26 00:25:38;;;;;;;17.35;10.68;;;77.40;2227.20;;;;;;5095765;28;20130;-68
2021/01/26 00:28:05;;;;;;;20.65;10.93;;;77.40;2227.20;;;;;;5112674;28;20135;-68
2021/01/26 00:30:32;;;;;;;17.58;10.35;;;77.40;2227.20;;;;;;5111677;28;20016;-68
2021/01/26 00:33:02;;;;;;;19.52;10.75;;;77.40;2227.20;;;;;;5113189;28;20035;-67
2021/01/26 00:35:29;;;;;;;21.30;10.68;;;77.40;2227.20;;;;;;5112069;28;20027;-66
2021/01/26 00:37:55;;;;;;;20.35;10.75;;;77.40;2227.20;;;;;;5112883;28;20023;-68
2021/01/26 00:40:21;;;;;;;19.60;10.90;;;77.40;2227.20;;;;;;5083346;28;20024;-67
2021/01/26 00:42:47;;;;;;;20.23;10.30;;;77.30;2227.20;;;;;;5109541;28;20064;-68
2021/01/26 00:45:13;;;;;;;20.73;10.35;;;77.30;2227.20;;;;;;5107215;28;20096;-68
2021/01/26 00:47:39;;;;;;;21.92;10.18;;;77.30;2227.20;;;;;;5087619;28;20051;-68
2021/01/26 00:50:06;;;;;;;20.08;10.50;;;77.20;2227.20;;;;;;5095652;28;20035;-68
2021/01/26 00:52:32;;;;;;;23.25;13.02;;;77.20;2227.20;;;;;;5094307;28;20028;-68
2021/01/26 00:54:58;;;;;;;22.27;11.93;;;77.10;2227.20;;;;;;5095325;28;20080;-67
2021/01/26 00:57:23;;;;;;;21.73;12.35;;;77.00;2227.20;;;;;;5092894;28;20114;-67
2021/01/26 00:59:49;;;;;;;22.85;12.27;;;77.00;2227.20;;;;;;5099477;28;20023;-68
2021/01/26 01:02:15;;;;;;;23.30;12.23;;;76.90;2227.20;;;;;;5074405;28;20059;-68
2021/01/26 01:04:41;;;;;;;25.08;13.52;;;76.90;2227.20;;;;;;5093274;28;20024;-68
2021/01/26 01:07:07;;;;;;;33.80;16.25;;;76.80;2227.20;;;;;;5096442;28;20389;-68
2021/01/26 01:09:32;;;;;;;35.00;17.38;;;76.80;2227.20;;;;;;5093720;28;20389;-67
2021/01/26 01:11:58;;;;;;;28.48;14.95;;;76.80;2227.20;;;;;;5094877;28;20039;-69
2021/01/26 01:14:24;;;;;;;22.35;11.38;;;52.10;2227.20;;;;;;5099853;28;20020;-69
2021/01/26 01:16:49;;;;;;;21.27;11.80;;;52.10;2227.20;;;;;;5093000;28;20019;-68
2021/01/26 01:19:15;;;;;;;22.30;11.23;;;52.10;2227.20;;;;;;5092060;28;20032;-68
2021/01/26 01:21:41;;;;;;;19.60;10.93;;;52.00;2227.20;;;;;;5096744;28;20016;-68
2021/01/26 01:24:07;;;;;;;15.68;9.18;;;52.00;2227.20;;;;;;5096073;28;20020;-67
2021/01/26 01:26:33;;;;;;;15.68;9.02;;;51.90;2227.20;;;;;;5100384;28;20561;-68
2021/01/26 01:28:58;;;;;;;16.40;9.23;;;51.90;2227.20;;;;;;5095659;28;20086;-68
2021/01/26 01:31:24;;;;;;;15.48;8.63;;;51.80;2227.20;;;;;;5097059;28;20019;-68
2021/01/26 01:33:50;;;;;;;11.77;7.13;;;51.80;2227.20;;;;;;5093350;28;20024;-68
2021/01/26 01:36:15;;;;;;;13.88;7.82;;;51.80;2227.20;;;;;;5094250;28;20015;-68
2021/01/26 01:38:41;;;;;;;10.65;6.53;;;51.70;2227.20;;;;;;5079237;28;20017;-68
2021/01/26 01:41:07;;;;;;;11.65;6.68;;;51.80;2227.20;;;;;;5102240;28;20518;-68
2021/01/26 01:43:32;;;;;;;11.52;6.43;;;51.70;2227.20;;;;;;5092570;28;20081;-67
2021/01/26 01:45:58;;;;;;;9.40;6.13;;;51.70;2227.20;;;;;;5092193;28;20081;-68
2021/01/26 01:48:26;;;;;;;11.10;6.55;;;51.70;2227.20;;;;;;5080429;28;20032;-69
2021/01/26 01:51:02;;;;;;;13.95;8.68;;;51.60;2227.20;;;;;;5100523;28;20012;-68
2021/01/26 01:53:47;;;;;;;9.48;6.30;;;51.60;2227.20;;;;;;5111971;28;20110;-68
2021/01/26 01:56:18;;;;;;;9.93;5.75;;;51.60;2227.20;;;;;;5081567;28;20024;-68
2021/01/26 01:58:46;;;;;;;9.02;5.35;;;51.60;2227.20;;;;;;5077888;28;20028;-70
2021/01/26 02:01:14;;;;;;;7.78;5.13;;;51.60;2227.20;;;;;;5094768;28;20020;-69
2021/01/26 02:03:41;;;;;;;8.35;4.80;;;51.60;2227.20;;;;;;5061652;28;20035;-68
2021/01/26 02:06:07;;;;;;;7.97;5.35;;;51.60;2227.20;;;;;;5063754;28;20057;-70
2021/01/26 02:08:53;;;;;;;9.10;5.30;;;51.60;2227.20;;;;;;5065988;28;20630;-67
2021/01/26 02:11:19;;;;;;;8.68;5.47;;;51.60;2227.20;;;;;;5059357;28;20032;-68
2021/01/26 02:13:45;;;;;;;9.07;6.35;;;51.60;2227.20;;;;;;5102025;28;20069;-68
2021/01/26 02:16:11;;;;;;;8.38;5.13;;;51.60;2227.20;;;;;;5111171;28;20032;-67
2021/01/26 02:18:52;;;;;;;7.68;5.07;;;51.70;2227.20;;;;;;5081143;28;20129;-70
2021/01/26 02:21:20;;;;;;;;;;;51.70;2227.20;;;;;;5102419;28;20031;-67
2021/01/26 02:24:08;;;;;;;8.15;5.25;;;51.60;2227.20;;;;;;5110911;28;19915;-67
2021/01/26 02:27:07;;;;;;;8.43;4.93;;;51.60;2227.20;;;;;;5103571;28;20044;-67
2021/01/26 02:30:08;;;;;;;7.88;4.78;;;51.60;2227.20;;;;;;5108874;28;20032;-67
2021/01/26 02:32:56;;;;;;;8.60;5.30;;;51.60;2227.20;;;;;;5100667;28;20032;-67
2021/01/26 02:35:39;;;;;;;9.68;5.45;;;51.70;2227.20;;;;;;5093669;28;20053;-67
2021/01/26 02:38:30;;;;;;;9.75;5.47;;;51.70;2227.20;;;;;;5096412;28;20027;-67
2021/01/26 02:41:03;;;;;;;9.32;5.97;;;51.60;2227.20;;;;;;5115372;28;20028;-68
2021/01/26 02:43:41;;;;;;;10.50;6.13;;;51.60;2227.20;;;;;;5082783;28;20031;-67
2021/01/26 02:46:11;;;;;;;9.02;5.82;;;51.60;2227.20;;;;;;5080729;28;20056;-67
2021/01/26 02:48:55;;;;;;;11.10;6.63;;;51.60;2227.20;;;;;;5097022;28;20035;-68
2021/01/26 02:51:43;;;;;;;13.25;7.40;;;51.60;2227.20;;;;;;5114137;28;20542;-71
2021/01/26 02:54:26;;;;;;;12.63;6.60;;;51.70;2227.20;;;;;;5082458;28;20022;-69
2021/01/26 02:57:30;;;;;;;11.75;7.22;;;51.60;2227.20;;;;;;5097347;28;20107;-67
2021/01/26 03:00:20;;;;;;;12.57;7.40;;;51.60;2227.20;;;;;;5051088;28;20095;-67
2021/01/26 03:03:06;;;;;;;11.45;7.20;;;51.60;2227.20;;;;;;5101351;28;20059;-69
2021/01/26 03:06:08;;;;;;;12.27;6.53;;;51.60;2227.20;;;;;;5086330;28;20032;-69
2021/01/26 03:08:35;;;;;;;11.85;7.07;;;51.70;2227.20;;;;;;5074303;28;20065;-67
2021/01/26 03:11:24;;;;;;;12.75;7.47;;;51.70;2227.20;;;;;;5115875;27;20050;-68
2021/01/26 03:14:25;;;;;;;12.32;7.15;;;51.70;2227.20;;;;;;5101969;28;20507;-67
2021/01/26 03:16:53;;;;;;;13.35;8.00;;;51.80;2227.20;;;;;;5064802;28;20089;-66
2021/01/26 03:19:20;;;;;;;11.88;7.25;;;51.80;2227.20;;;;;;5114378;28;20103;-68
2021/01/26 03:21:48;;;;;;;12.00;7.07;;;51.80;2227.20;;;;;;5096217;28;20032;-68
2021/01/26 03:24:22;;;;;;;12.73;7.35;;;51.80;2227.20;;;;;;5096678;28;20028;-67
2021/01/26 03:26:48;;;;;;;10.68;6.35;;;51.80;2227.20;;;;;;5079976;28;20061;-67
2021/01/26 03:29:17;;;;;;;12.52;7.45;;;51.80;2227.20;;;;;;5095907;28;20095;-67
2021/01/26 03:31:46;;;;;;;11.25;7.25;;;51.80;2227.20;;;;;;5096623;28;20084;-68
2021/01/26 03:34:11;;;;;;;10.80;6.75;;;51.80;2227.20;;;;;;5079512;28;20019;-67
2021/01/26 03:36:40;;;;;;;11.45;6.88;;;51.80;2227.20;;;;;;5079508;28;20190;-71
2021/01/26 03:39:05;;;;;;;13.00;7.32;;;51.80;2227.20;;;;;;5096140;28;20090;-67
2021/01/26 03:41:31;;;;;;;13.68;7.25;;;51.70;2227.20;;;;;;5112767;28;20102;-68
2021/01/26 03:43:57;;;;;;;10.30;6.50;;;51.70;2227.20;;;;;;5114383;27;20867;-67
2021/01/26 03:46:42;;;;;;;12.40;7.20;;;51.70;2227.20;;;;;;5116306;28;20252;-68
2021/01/26 03:49:25;;;;;;;11.43;7.30;;;51.70;2227.20;;;;;;5113298;28;20392;-68
2021/01/26 03:52:28;;;;;;;12.52;7.15;;;51.70;2227.20;;;;;;5114898;27;20031;-67
2021/01/26 03:55:17;;;;;;;11.95;7.43;;;51.60;2227.20;;;;;;5115304;27;20484;-67
2021/01/26 03:57:44;;;;;;;13.82;7.25;;;51.60;2227.20;;;;;;5114058;28;20455;-68
2021/01/26 04:00:12;;;;;;;11.43;6.93;;;51.60;2227.20;;;;;;5111899;28;20019;-68
2021/01/26 04:03:09;;;;;;;11.20;6.78;;;51.60;2227.20;;;;;;5112156;28;20015;-68
2021/01/26 04:05:39;;;;;;;10.73;6.78;;;51.60;2227.20;;;;;;5113802;28;20019;-68
2021/01/26 04:08:10;;;;;;;13.02;7.20;;;51.70;2227.20;;;;;;5112121;28;20045;-67
2021/01/26 04:10:38;;;;;;;14.20;7.82;;;51.70;2227.20;;;;;;5111963;28;20380;-68
2021/01/26 04:13:07;;;;;;;11.60;7.20;;;51.70;2227.20;;;;;;5095158;28;20031;-67
2021/01/26 04:15:43;;;;;;;13.38;7.82;;;51.70;2227.20;;;;;;5096136;28;20020;-69
2021/01/26 04:18:10;;;;;;;13.02;8.05;;;51.70;2227.20;;;;;;5095848;28;20047;-68
2021/01/26 04:20:36;;;;;;;12.65;7.97;;;51.70;2227.20;;;;;;5094759;28;20346;-67
2021/01/26 04:23:02;;;;;;;12.32;7.53;;;51.80;2227.20;;;;;;5094895;28;20502;-67
2021/01/26 04:25:46;;;;;;;11.80;6.63;;;51.80;2227.20;;;;;;5111331;28;20028;-67
2021/01/26 04:28:17;;;;;;;10.45;6.50;;;51.80;2227.20;;;;;;5104099;28;20038;-68
2021/01/26 04:30:43;;;;;;;13.15;6.90;;;51.80;2227.20;;;;;;5111239;28;20119;-68
2021/01/26 04:33:12;;;;;;;11.05;6.45;;;51.70;2227.20;;;;;;5112206;28;20103;-67
2021/01/26 04:35:38;;;;;;;10.23;6.40;;;51.70;2227.20;;;;;;5111884;27;20016;-70
2021/01/26 04:38:04;;;;;;;11.18;6.28;;;51.60;2227.20;;;;;;5108681;28;20476;-68
2021/01/26 04:40:30;;;;;;;10.65;6.40;;;51.70;2227.20;;;;;;5092508;28;20027;-67
2021/01/26 04:43:11;;;;;;;10.32;6.50;;;51.70;2227.20;;;;;;5112469;28;20019;-68
2021/01/26 04:45:48;;;;;;;;;;;51.60;2227.20;;;;;;5107457;28;20022;-68
2021/01/26 04:48:17;;;;;;;10.98;6.03;;;51.60;2227.20;;;;;;5112395;28;19918;-67
2021/01/26 04:50:56;;;;;;;12.00;7.03;;;51.60;2227.20;;;;;;5094354;28;20026;-67
2021/01/26 04:53:44;;;;;;;10.45;6.85;;;51.60;2227.20;;;;;;5112461;28;20191;-68
2021/01/26 04:56:34;;;;;;;11.18;6.80;;;51.60;2227.20;;;;;;5103751;28;20022;-67
2021/01/26 04:59:28;;;;;;;10.35;6.45;;;51.60;2227.20;;;;;;5112394;28;20022;-67
2021/01/26 05:02:18;;;;;;;12.48;7.10;;;51.70;2227.20;;;;;;5112384;28;20024;-67
2021/01/26 05:04:51;;;;;;;11.27;7.22;;;51.70;2227.20;;;;;;5175031;22;20035;-68
2021/01/26 05:07:22;;;;;;;11.50;7.60;;;51.70;2227.20;;;;;;5060106;28;20048;-69
2021/01/26 05:10:05;;;;;;;;;;;51.70;2227.20;;;;;;5071690;28;20074;-67
2021/01/26 05:12:34;;;;;;;11.77;6.72;;;51.60;2227.20;;;;;;5069282;28;20441;-67
2021/01/26 05:15:00;;;;;;;11.18;7.22;;;51.70;2227.20;;;;;;5037090;28;20035;-69
2021/01/26 05:17:35;;;;;;;13.52;8.43;;;51.70;2227.20;;;;;;5060615;28;20382;-67
2021/01/26 05:20:18;;;;;;;47.67;20.45;;;51.70;2227.20;;;;;;5050282;28;20025;-67
2021/01/26 05:23:05;;;;;;;18.17;10.10;;;51.70;2227.20;;;;;;5050121;28;20040;-68
2021/01/26 05:25:30;;;;;;;15.65;9.27;;;51.70;2227.20;;;;;;5046767;28;20027;-67
2021/01/26 05:27:56;;;;;;;13.05;7.65;;;51.70;2227.20;;;;;;5052045;28;20029;-68
2021/01/26 05:30:32;;;;;;;12.35;8.15;;;51.80;2227.20;;;;;;5051162;28;20025;-67
2021/01/26 05:33:13;;;;;;;12.82;8.63;;;51.80;2227.20;;;;;;5034515;28;20398;-67
2021/01/26 05:35:39;;;;;;;;;;;51.80;2227.20;;;;;;5034094;28;20454;-68
2021/01/26 05:38:05;;;;;;;14.95;9.75;;;51.80;2227.20;;;;;;5051971;28;20269;-68
2021/01/26 05:40:32;;;;;;;14.63;9.18;;;51.70;2227.20;;;;;;5050982;28;20017;-67
2021/01/26 05:43:03;;;;;;;14.55;9.25;;;51.80;2227.20;;;;;;5016555;28;20078;-67
2021/01/26 05:45:40;;;;;;;14.88;8.50;;;51.70;2227.20;;;;;;5050835;28;20620;-68
2021/01/26 05:48:09;;;;;;;14.13;8.40;;;51.70;2227.20;;;;;;5044095;28;20613;-67
2021/01/26 05:50:36;;;;;;;15.07;8.82;;;51.60;2227.20;;;;;;5036611;28;20036;-71
2021/01/26 05:53:09;;;;;;;12.45;7.45;;;51.60;2227.20;;;;;;5032939;28;20098;-67
2021/01/26 05:55:35;;;;;;;12.45;7.53;;;51.60;2227.20;;;;;;5034862;28;20025;-67
2021/01/26 05:58:14;;;;;;;12.00;7.32;;;51.60;2227.20;;;;;;5033496;28;20548;-67
2021/01/26 06:00:40;;;;;;;13.13;7.15;;;51.60;2227.20;;;;;;5050850;28;20060;-67
2021/01/26 06:03:20;;;;;;;12.68;7.70;;;51.60;2227.20;;;;;;5050901;28;20040;-67
2021/01/26 06:06:03;;;;;;;16.77;8.80;;;51.60;2227.20;;;;;;5050636;28;20064;-67
2021/01/26 06:08:29;;;;;;;15.82;9.05;;;51.60;2227.20;;;;;;5033281;28;20602;-67
2021/01/26 06:10:55;;;;;;;13.60;8.45;;;51.60;2227.20;;;;;;5051141;28;20031;-67
2021/01/26 06:13:28;;;;;;;11.57;7.70;;;51.60;2227.20;;;;;;5036843;28;20060;-68
2021/01/26 06:16:20;;;;;;;14.38;9.00;;;51.60;2227.20;;;;;;5054905;28;20039;-68
2021/01/26 06:18:57;;;;;;;14.05;7.75;;;51.60;2227.20;;;;;;5029980;28;20034;-67
2021/01/26 06:21:22;;;;;;;12.50;7.22;;;51.60;2227.20;;;;;;5055524;28;20033;-67
2021/01/26 06:23:51;;;;;;;12.60;7.43;;;51.60;2227.20;;;;;;5059910;28;20036;-67
2021/01/26 06:26:20;;;;;;;14.02;7.85;;;51.50;2227.20;;;;;;5057830;28;20021;-68
2021/01/26 06:29:20;;;;;;;11.88;7.22;;;51.50;2227.20;;;;;;5057821;28;20304;-67
2021/01/26 06:32:07;;;;;;;11.75;7.15;;;51.50;2227.20;;;;;;5055047;28;20029;-67
2021/01/26 06:34:37;;;;;;;14.27;8.20;;;51.50;2227.20;;;;;;5004807;28;20030;-67
2021/01/26 06:37:40;;;;;;;13.20;7.95;;;51.40;2227.20;;;;;;5035032;28;20064;-71
2021/01/26 06:40:28;;;;;;;13.93;7.88;;;51.40;2227.20;;;;;;5049146;28;20029;-67
2021/01/26 06:42:57;;;;;;;17.77;9.85;;;51.50;2227.20;;;;;;5030744;28;20354;-67
2021/01/26 06:45:34;;;;;;;15.95;9.77;;;51.40;2227.20;;;;;;5037167;28;20033;-67
2021/01/26 06:48:07;;;;;;;13.80;8.18;;;51.50;2227.20;;;;;;5047758;28;20090;-67
2021/01/26 06:51:11;;;;;;;13.40;7.85;;;51.40;2227.20;;;;;;5038485;28;20461;-68
2021/01/26 06:53:39;;;;;;;11.95;7.43;;;51.40;2227.20;;;;;;5025065;28;20112;-67
2021/01/26 06:56:41;;;;;;;12.55;7.55;;;51.50;2227.20;;;;;;5054801;28;20430;-67
2021/01/26 06:59:06;;;;;;;12.45;7.20;;;51.40;2227.20;;;;;;5053685;28;20031;-67
2021/01/26 07:02:09;;;;;;;12.77;8.18;;;51.30;2227.20;;;;;;5053257;28;20024;-67
2021/01/26 07:04:56;;;;;;;14.00;7.80;;;51.40;2227.20;;;;;;5054215;28;20025;-70
2021/01/26 07:07:34;;;;;;;12.20;7.32;;;51.40;2227.20;;;;;;5053687;28;20025;-67
2021/01/26 07:10:27;;;;;;;12.65;7.80;;;51.40;2227.20;;;;;;5052577;28;20020;-67
2021/01/26 07:13:30;;;;;;;11.90;7.65;;;51.40;2227.20;;;;;;5052858;28;20056;-66
2021/01/26 07:16:05;;;;;;;13.57;8.10;;;51.40;2227.20;;;;;;5027550;28;20071;-67
2021/01/26 07:18:44;;;;;;;13.48;7.85;;;51.40;2227.20;;;;;;5039552;28;20027;-67
2021/01/26 07:21:36;;;;;;;12.32;8.13;;;51.40;2227.20;;;;;;5034953;28;20025;-66
2021/01/26 07:24:43;;;;;;;13.98;8.52;;;51.40;2227.20;;;;;;5050537;28;20039;-67
2021/01/26 07:27:16;;;;;;;30.30;14.63;;;51.40;2227.20;;;;;;5041117;28;20036;-67
2021/01/26 07:29:58;;;;;;;78.88;27.48;;;51.50;2227.20;;;;;;5031571;28;20067;-66
2021/01/26 07:32:31;;;;;;;88.75;33.63;;;51.60;2227.20;;;;;;5038221;28;20025;-67
2021/01/26 07:35:06;;;;;;;58.67;26.63;;;51.60;2227.20;;;;;;5044646;28;20053;-66
2021/01/26 07:37:58;;;;;;;67.90;29.98;;;51.60;2227.20;;;;;;5037179;28;20025;-65
2021/01/26 07:40:40;;;;;;;44.45;24.52;;;51.60;2227.20;;;;;;5016984;28;20055;-66
2021/01/26 07:43:17;;;;;;;33.72;19.98;;;51.70;2227.20;;;;;;5025296;28;20363;-67
2021/01/26 07:45:48;;;;;;;25.23;16.63;;;51.70;2227.20;;;;;;5024918;28;20021;-67
2021/01/26 07:48:19;;;;;;;22.55;14.80;;;51.70;2227.20;;;;;;5036386;28;20025;-66
2021/01/26 07:50:46;;;;;;;26.48;16.20;;;51.80;2227.20;;;;;;5007383;28;20018;-66
2021/01/26 07:53:25;;;;;;;25.92;15.00;;;51.80;2227.20;;;;;;5020911;28;20028;-67
2021/01/26 07:56:27;;;;;;;24.70;15.23;;;51.70;2227.20;;;;;;5037190;28;20120;-67
2021/01/26 07:58:53;;;;;;;25.92;15.15;;;51.70;2227.20;;;;;;5050242;28;20013;-67
2021/01/26 08:01:19;;;;;;;23.55;14.48;;;51.70;2227.20;;;;;;5027278;28;20393;-66
2021/01/26 08:03:45;;;;;;;23.92;14.35;;;51.70;2227.20;;;;;;5035464;28;20028;-67
2021/01/26 08:06:53;;;;;;;23.95;14.80;;;51.80;2227.20;;;;;;5035008;28;20029;-66
2021/01/26 08:09:41;;;;;;;27.20;16.75;;;51.70;2227.20;;;;;;4953064;28;20042;-66
2021/01/26 08:12:33;;;;;;;45.88;29.13;;;51.80;2227.20;;;;;;4938158;29;20047;-67
2021/01/26 08:15:20;;;;;;;42.60;28.42;;;51.90;2227.20;;;;;;5026800;28;20163;-67
2021/01/26 08:17:45;;;;;;;46.58;30.50;;;52.00;2227.20;;;;;;5046023;28;20022;-67
2021/01/26 08:20:20;;;;;;;37.95;23.98;;;52.00;2227.20;;;;;;5028525;28;20028;-66
2021/01/26 08:22:47;;;;;;;41.83;25.67;;;52.00;2227.20;;;;;;5049088;28;20021;-67
2021/01/26 08:25:32;;;;;;;29.00;17.25;;;52.10;2227.20;;;;;;5035122;28;20154;-67
2021/01/26 08:28:02;;;;;;;27.27;15.63;;;52.10;2227.20;;;;;;5052366;28;20130;-67
2021/01/26 08:30:54;;;;;;;22.92;14.10;;;52.10;2227.20;;;;;;5046776;28;20108;-65
2021/01/26 08:33:22;;;;;;;21.90;13.25;;;52.10;2227.20;;;;;;5037894;28;20032;-66
2021/01/26 08:35:47;;;;;;;18.63;11.50;;;52.10;2227.20;;;;;;5049696;28;20120;-67
2021/01/26 08:38:49;;;;;;;24.38;14.07;;;52.10;2227.20;;;;;;5051851;28;20104;-67
2021/01/26 08:41:40;;;;;;;19.25;11.82;;;52.10;2227.20;;;;;;4980374;28;20033;-67
2021/01/26 08:44:22;;;;;;;20.40;11.73;;;76.80;2227.20;;;;;;5051338;28;20041;-67
2021/01/26 08:46:49;;;;;;;20.70;11.55;;;52.10;2227.20;;;;;;5051516;28;20040;-67
2021/01/26 08:49:32;;;;;;;20.27;11.48;;;76.80;2227.20;;;;;;5017654;28;20382;-67
2021/01/26 08:52:19;;;;;;;21.58;11.52;;;76.90;2227.20;;;;;;5029602;28;20025;-69
2021/01/26 08:54:45;;;;;;;22.00;11.65;;;76.90;2227.20;;;;;;5043774;28;20482;-69
2021/01/26 08:57:29;;;;;;;24.27;13.27;;;76.90;2227.20;;;;;;5027753;28;20031;-67
2021/01/26 08:59:55;;;;;;;24.27;13.25;;;76.90;2227.20;;;;;;5048543;28;20513;-67
2021/01/26 09:02:52;;;;;;;24.65;14.07;;;77.10;2227.20;;;;;;5052156;28;20037;-67
2021/01/26 09:05:49;;;;;;;26.67;13.70;;;77.10;2227.20;;;;;;5031565;28;20179;-67
2021/01/26 09:08:40;;;;;;;23.52;12.77;;;77.10;2227.20;;;;;;5033772;28;20025;-69
2021/01/26 09:11:15;;;;;;;;;;;77.10;2227.20;;;;;;5034440;28;20024;-67
2021/01/26 09:13:40;;;;;;;19.92;10.43;;;77.10;2227.20;;;;;;5049803;28;19952;-67
2021/01/26 09:16:20;;;;;;;23.15;12.20;;;77.20;2227.20;;;;;;5050461;28;20044;-68
2021/01/26 09:18:52;;;;;;;22.63;12.80;;;77.20;2227.20;;;;;;5050074;28;20017;-68
2021/01/26 09:21:17;;;;;;;23.63;12.27;;;77.30;2227.20;;;;;;5021449;28;20605;-68
2021/01/26 09:23:43;;;;;;;23.75;13.25;;;77.40;2227.20;;;;;;5050659;28;20033;-69
2021/01/26 09:26:16;;;;;;;24.67;13.35;;;77.40;2227.20;;;;;;5020165;28;20447;-68
2021/01/26 09:28:43;;;;;;;24.48;12.82;;;77.50;2227.20;;;;;;5048161;28;20051;-66
2021/01/26 09:31:09;;;;;;;23.77;14.82;;;77.50;2227.20;;;;;;5043448;28;20355;-66
2021/01/26 09:33:35;;;;;;;27.33;15.65;;;77.60;2227.20;;;;;;5032183;28;20017;-66
2021/01/26 09:36:01;;;;;;;25.45;14.95;;;77.70;2227.20;;;;;;5031438;28;20021;-66
2021/01/26 09:38:41;;;;;;;26.50;14.02;;;77.70;2227.20;;;;;;5049502;28;20009;-67
2021/01/26 09:41:20;;;;;;;20.20;11.73;;;77.70;2227.20;;;;;;5050853;28;20040;-67
2021/01/26 09:44:02;;;;;;;23.85;13.40;;;77.70;2227.20;;;;;;5050695;28;20386;-66
2021/01/26 09:46:34;;;;;;;21.75;13.15;;;77.70;2227.20;;;;;;5034921;28;20377;-66
2021/01/26 09:49:27;;;;;;;28.48;17.25;;;77.70;2227.20;;;;;;5024524;28;20025;-67
2021/01/26 09:52:19;;;;;;;27.65;14.73;;;77.60;2227.20;;;;;;5023027;28;20423;-67
2021/01/26 09:54:47;;;;;;;25.27;14.05;;;77.70;2227.20;;;;;;5027607;28;20551;-67
2021/01/26 09:57:16;;;;;;;28.33;15.95;;;77.60;2227.20;;;;;;5032618;28;20032;-66
2021/01/26 09:59:43;;;;;;;25.88;15.70;;;77.70;2227.20;;;;;;5016826;28;20019;-66
2021/01/26 10:02:11;;;;;;;24.95;14.43;;;77.60;2227.20;;;;;;5039262;28;20044;-68
2021/01/26 10:04:38;;;;;;;27.15;16.58;;;77.70;2227.20;;;;;;5030553;28;20029;-68
2021/01/26 10:07:06;;;;;;;41.40;26.80;;;102.40;2227.20;;;;;;5010091;28;20498;-66
2021/01/26 10:09:35;;;;;;;32.45;19.33;;;102.50;2227.20;;;;;;5016494;28;20029;-66
2021/01/26 10:12:26;;;;;;;30.50;16.95;;;102.60;2227.20;;;;;;5019830;28;20037;-65
2021/01/26 10:15:13;;;;;;;23.58;13.70;;;102.70;2227.20;;;;;;5037697;28;20031;-66
2021/01/26 10:17:47;;;;;;;23.15;13.30;;;102.70;2227.20;;;;;;5053391;28;20025;-66
2021/01/26 10:20:19;;;;;;;23.08;12.85;;;102.80;2227.20;;;;;;5037426;28;20143;-67
2021/01/26 10:22:45;;;;;;;22.42;12.80;;;102.80;2227.20;;;;;;5032926;28;20013;-66
2021/01/26 10:25:11;;;;;;;24.75;14.30;;;102.80;2227.20;;;;;;5033644;28;20371;-68
2021/01/26 10:27:38;;;;;;;22.80;13.55;;;102.80;2227.20;;;;;;5052635;28;20147;-66
2021/01/26 10:30:13;;;;;;;22.85;13.43;;;102.80;2227.20;;;;;;5028423;28;20078;-67
2021/01/26 10:32:40;;;;;;;25.08;13.82;;;102.80;2227.20;;;;;;5049287;28;20553;-66
2021/01/26 10:35:23;;;;;;;24.25;13.65;;;102.70;2227.20;;;;;;5023273;28;20090;-66
2021/01/26 10:37:49;;;;;;;25.67;13.88;;;102.70;2227.20;;;;;;5026944;28;20032;-66
2021/01/26 10:40:26;;;;;;;23.35;13.00;;;102.60;2227.20;;;;;;5036402;28;20021;-65
2021/01/26 10:42:59;;;;;;;20.95;12.88;;;102.50;2227.20;;;;;;5043356;28;20053;-68
2021/01/26 10:45:38;;;;;;;24.77;14.05;;;102.50;2227.20;;;;;;5030564;28;20068;-66
2021/01/26 10:48:50;;;;;;;23.48;13.13;;;102.50;2227.20;;;;;;5031376;28;20059;-67
2021/01/26 10:51:25;;;;;;;21.25;12.63;;;102.40;2227.20;;;;;;5009189;28;20045;-66
2021/01/26 10:53:50;;;;;;;19.92;11.98;;;102.50;2227.20;;;;;;5036290;28;20198;-66
2021/01/26 10:56:16;;;;;;;21.90;12.60;;;102.40;2227.20;;;;;;5025366;28;20032;-66
2021/01/26 10:58:42;;;;;;;21.15;12.82;;;102.40;2227.20;;;;;;5052912;28;20474;-66
2021/01/26 11:01:09;;;;;;;20.63;12.55;;;102.40;2227.20;;;;;;5053983;28;20153;-67
2021/01/26 11:03:35;;;;;;;20.45;12.20;;;77.70;2227.20;;;;;;5035585;28;20381;-67
2021/01/26 11:06:00;;;;;;;20.98;12.88;;;77.70;2227.20;;;;;;5046066;28;20054;-68
2021/01/26 11:08:26;;;;;;;32.38;18.17;;;77.60;2227.20;;;;;;5045929;28;20544;-67
2021/01/26 11:10:52;;;;;;;21.42;12.52;;;77.70;2227.20;;;;;;5046017;28;20032;-67
2021/01/26 11:13:17;;;;;;;19.67;12.48;;;77.70;2227.20;;;;;;5027935;28;20076;-67
2021/01/26 11:15:43;;;;;;;22.20;12.38;;;77.70;2227.20;;;;;;5045515;28;20021;-69
2021/01/26 11:18:09;;;;;;;22.40;12.95;;;102.50;2227.20;;;;;;5046139;28;20021;-66
2021/01/26 11:20:34;;;;;;;22.00;12.02;;;102.60;2227.20;;;;;;5046872;28;20028;-67
2021/01/26 11:23:00;;;;;;;20.13;11.77;;;102.80;2227.20;;;;;;5046135;28;20026;-67
2021/01/26 11:25:27;;;;;;;21.95;13.13;;;102.80;2227.20;;;;;;5047077;28;20021;-66
2021/01/26 11:27:53;;;;;;;20.35;12.48;;;103.00;2227.20;;;;;;5050003;28;20024;-67
2021/01/26 11:30:19;;;;;;;25.42;15.75;;;103.00;2227.20;;;;;;5054320;28;20033;-68
2021/01/26 11:32:44;;;;;;;21.55;12.57;;;103.00;2227.20;;;;;;5052138;28;20025;-67
2021/01/26 11:35:11;;;;;;;33.88;18.65;;;103.00;2227.20;;;;;;5048726;28;20608;-66
2021/01/26 11:37:37;;;;;;;46.30;23.50;;;103.00;2227.20;;;;;;5049545;28;20027;-66
2021/01/26 11:40:05;;;;;;;32.33;17.50;;;102.90;2227.20;;;;;;5032724;28;20404;-66
2021/01/26 11:42:30;;;;;;;29.83;16.38;;;102.80;2201.60;;;;;;5045967;28;20021;-66
2021/01/26 11:44:56;;;;;;;29.48;16.80;;;102.80;2227.20;;;;;;5051036;28;20021;-67
2021/01/26 11:47:21;;;;;;;25.52;14.57;;;102.70;2227.20;;;;;;5040164;28;20033;-68
2021/01/26 11:49:47;;;;;;;26.50;14.73;;;102.70;2227.20;;;;;;5048695;28;20055;-66
2021/01/26 11:52:13;;;;;;;39.45;20.60;;;102.70;2227.20;;;;;;5043863;28;20109;-67
2021/01/26 11:54:39;;;;;;;32.67;16.15;;;102.70;2227.20;;;;;;5031221;28;20025;-67
2021/01/26 11:57:10;;;;;;;32.75;16.25;;;102.60;2227.20;;;;;;5052810;28;20017;-68
2021/01/26 11:59:36;;;;;;;49.42;24.13;;;102.60;2227.20;;;;;;5053766;28;20013;-68
2021/01/26 12:02:02;;;;;;;24.48;14.13;;;102.70;2227.20;;;;;;5053527;28;20017;-67
2021/01/26 12:04:27;;;;;;;25.08;13.68;;;102.70;2227.20;;;;;;5050575;28;20021;-69
2021/01/26 12:06:53;;;;;;;27.73;15.05;;;102.60;2150.40;;;;;;5051424;28;20517;-68
2021/01/26 12:09:19;;;;;;;50.53;24.10;;;102.60;2201.60;;;;;;5049714;28;20104;-67
2021/01/26 12:11:44;;;;;;;42.78;21.33;;;102.60;2201.60;;;;;;5051387;28;20489;-68
2021/01/26 12:14:10;;;;;;;51.78;25.23;;;102.60;2176.00;;;;;;5049584;28;20123;-69
2021/01/26 12:16:36;;;;;;;28.63;14.82;;;102.60;2176.00;;;;;;5031859;28;20025;-66
2021/01/26 12:19:01;;;;;;;41.63;21.45;;;102.60;2150.40;;;;;;5051037;28;20025;-66
2021/01/26 12:21:27;;;;;;;27.65;15.30;;;102.60;2176.00;;;;;;5050935;28;20505;-66
2021/01/26 12:23:53;;;;;;;22.45;12.85;;;102.50;2176.00;;;;;;5051062;28;20025;-66
2021/01/26 12:26:18;;;;;;;23.95;12.57;;;102.50;2176.00;;;;;;5044370;28;20021;-67
2021/01/26 12:28:45;;;;;;;43.20;19.33;;;102.40;2176.00;;;;;;5042070;28;20025;-66
2021/01/26 12:31:10;;;;;;;32.35;15.80;;;77.70;2201.60;;;;;;5039612;28;20164;-66
2021/01/26 12:33:36;;;;;;;27.05;13.90;;;77.60;2201.60;;;;;;5042785;28;20191;-67
2021/01/26 12:36:02;;;;;;;34.95;18.40;;;77.60;2201.60;;;;;;5042357;28;20144;-67
2021/01/26 12:38:27;;;;;;;23.95;12.40;;;77.60;2227.20;;;;;;5020334;28;20037;-66
2021/01/26 12:40:53;;;;;;;81.55;30.60;;;77.60;2227.20;;;;;;5043547;28;20027;-66
2021/01/26 12:43:19;;;;;;;40.63;17.30;;;77.50;2201.60;;;;;;5047691;28;20028;-67
2021/01/26 12:45:44;;;;;;;29.20;14.00;;;77.60;2201.60;;;;;;5045694;28;20399;-67